Time,TemperatureF,DewpointF,PressureIn,WindDirection,WindDirectionDegrees,WindSpeedMPH,WindSpeedGustMPH,Humidity,HourlyPrecipIn,Conditions,Clouds,dailyrainin,SoftwareType,DateUTC
2013-02-25 00:01:00,34.0,23.0,30.03,SSW,201,6.0,11.0,65,0.00,,,0.00,,2013-02-25 05:01:00,
2013-02-25 00:11:00,34.0,23.0,30.03,SSW,201,6.0,11.0,65,0.00,,,0.00,,2013-02-25 05:11:00,
2013-02-25 00:22:00,34.0,24.0,30.05,WNW,291,4.0,13.0,66,0.00,,,0.00,,2013-02-25 05:22:00,
2013-02-25 00:32:00,34.0,24.0,30.05,WNW,291,4.0,13.0,66,0.00,,,0.00,,2013-02-25 05:32:00,
2013-02-25 00:42:00,34.0,24.0,30.05,WNW,291,4.0,13.0,66,0.00,,,0.00,,2013-02-25 05:42:00,
2013-02-25 00:52:00,33.0,23.0,30.06,NNW,330,2.0,11.0,67,0.00,,,0.00,,2013-02-25 05:52:00,
2013-02-25 01:02:00,33.0,23.0,30.06,NNW,330,2.0,11.0,67,0.00,,,0.00,,2013-02-25 06:02:00,
2013-02-25 01:12:00,33.0,23.0,30.06,NNW,330,2.0,11.0,67,0.00,,,0.00,,2013-02-25 06:12:00,
2013-02-25 01:21:00,33.0,24.0,30.06,WSW,255,5.0,9.0,70,0.00,,,0.00,,2013-02-25 06:21:00,
2013-02-25 01:32:00,33.0,24.0,30.06,WSW,255,5.0,9.0,70,0.00,,,0.00,,2013-02-25 06:32:00,
2013-02-25 01:42:00,33.0,24.0,30.06,WSW,255,5.0,9.0,70,0.00,,,0.00,,2013-02-25 06:42:00,
2013-02-25 01:52:00,32.0,23.0,30.06,WSW,252,3.0,10.0,70,0.00,,,0.00,,2013-02-25 06:52:00,
2013-02-25 02:01:00,32.0,23.0,30.06,WSW,252,3.0,10.0,70,0.00,,,0.00,,2013-02-25 07:01:00,
2013-02-25 02:11:00,32.0,23.0,30.06,WSW,252,3.0,10.0,70,0.00,,,0.00,,2013-02-25 07:11:00,
2013-02-25 02:21:00,32.0,23.0,30.06,WSW,252,3.0,10.0,70,0.00,,,0.00,,2013-02-25 07:21:00,
2013-02-25 02:52:00,32.0,24.0,30.07,NW,310,2.0,9.0,72,0.00,,,0.00,,2013-02-25 07:52:00,
2013-02-25 03:01:00,32.0,24.0,30.07,NW,310,2.0,9.0,72,0.00,,,0.00,,2013-02-25 08:01:00,
2013-02-25 03:11:00,32.0,24.0,30.07,NW,310,2.0,9.0,72,0.00,,,0.00,,2013-02-25 08:11:00,
2013-02-25 03:21:00,31.0,23.0,30.07,NW,304,3.0,8.0,73,0.00,,,0.00,,2013-02-25 08:21:00,
2013-02-25 03:32:00,31.0,23.0,30.07,NW,304,3.0,8.0,73,0.00,,,0.00,,2013-02-25 08:32:00,
2013-02-25 03:42:00,31.0,23.0,30.07,NW,304,3.0,8.0,73,0.00,,,0.00,,2013-02-25 08:42:00,
2013-02-25 03:52:00,31.0,24.0,30.08,West,277,4.0,8.0,74,0.00,,,0.00,,2013-02-25 08:52:00,
2013-02-25 04:01:00,31.0,24.0,30.08,West,277,4.0,8.0,74,0.00,,,0.00,,2013-02-25 09:01:00,
2013-02-25 04:12:00,31.0,24.0,30.08,West,277,4.0,8.0,74,0.00,,,0.00,,2013-02-25 09:12:00,
2013-02-25 04:21:00,31.0,24.0,30.08,West,277,4.0,8.0,74,0.00,,,0.00,,2013-02-25 09:21:00,
2013-02-25 04:32:00,30.0,23.0,30.09,SW,236,6.0,10.0,75,0.00,,,0.00,,2013-02-25 09:32:00,
2013-02-25 04:52:00,30.0,23.0,30.09,SW,236,6.0,10.0,75,0.00,,,0.00,,2013-02-25 09:52:00,
2013-02-25 05:01:00,30.0,23.0,30.09,SW,236,6.0,10.0,75,0.00,,,0.00,,2013-02-25 10:01:00,
2013-02-25 05:11:00,30.0,23.0,30.09,SW,236,6.0,10.0,75,0.00,,,0.00,,2013-02-25 10:11:00,
2013-02-25 05:21:00,30.0,23.0,30.09,SW,236,6.0,10.0,75,0.00,,,0.00,,2013-02-25 10:21:00,
2013-02-25 05:52:00,30.0,23.0,30.10,WNW,284,4.0,8.0,76,0.00,,,0.00,,2013-02-25 10:52:00,
2013-02-25 06:01:00,30.0,23.0,30.10,WNW,284,4.0,8.0,76,0.00,,,0.00,,2013-02-25 11:01:00,
2013-02-25 06:11:00,30.0,23.0,30.10,WNW,284,4.0,8.0,76,0.00,,,0.00,,2013-02-25 11:11:00,
2013-02-25 06:22:00,30.0,24.0,30.12,West,264,2.0,7.0,77,0.00,,,0.00,,2013-02-25 11:22:00,
2013-02-25 06:32:00,30.0,24.0,30.12,West,264,2.0,7.0,77,0.00,,,0.00,,2013-02-25 11:32:00,
2013-02-25 06:42:00,30.0,24.0,30.12,West,264,2.0,7.0,77,0.00,,,0.00,,2013-02-25 11:42:00,
2013-02-25 06:52:00,29.0,23.0,30.13,NW,314,4.0,6.0,78,0.00,,,0.00,,2013-02-25 11:52:00,
2013-02-25 07:02:00,29.0,23.0,30.13,NW,314,4.0,6.0,78,0.00,,,0.00,,2013-02-25 12:02:00,
2013-02-25 07:11:00,29.0,23.0,30.13,NW,314,4.0,6.0,78,0.00,,,0.00,,2013-02-25 12:11:00,
2013-02-25 07:22:00,30.0,24.0,30.14,WNW,297,4.0,8.0,78,0.00,,,0.00,,2013-02-25 12:22:00,
2013-02-25 07:31:00,32.0,25.0,30.14,NW,318,7.0,11.0,75,0.00,,,0.00,,2013-02-25 12:31:00,
2013-02-25 07:32:00,30.0,24.0,30.14,WNW,297,4.0,8.0,78,0.00,,,0.00,,2013-02-25 12:32:00,
2013-02-25 07:42:00,30.0,24.0,30.14,WNW,297,4.0,8.0,78,0.00,,,0.00,,2013-02-25 12:42:00,
2013-02-25 07:56:00,32.0,25.0,30.14,NW,318,7.0,11.0,75,0.00,,,0.00,,2013-02-25 12:56:00,
2013-02-25 08:02:00,32.0,25.0,30.14,NW,318,7.0,11.0,75,0.00,,,0.00,,2013-02-25 13:02:00,
2013-02-25 08:12:00,32.0,25.0,30.14,NW,318,7.0,11.0,75,0.00,,,0.00,,2013-02-25 13:12:00,
2013-02-25 08:23:00,32.0,25.0,30.14,NW,318,7.0,11.0,75,0.00,,,0.00,,2013-02-25 13:23:00,
2013-02-25 08:52:00,36.0,26.0,30.15,North,353,8.0,13.0,68,0.00,,,0.00,,2013-02-25 13:52:00,
2013-02-25 09:04:00,36.0,26.0,30.15,North,353,8.0,13.0,68,0.00,,,0.00,,2013-02-25 14:04:00,
2013-02-25 09:18:00,36.0,26.0,30.15,North,353,8.0,13.0,68,0.00,,,0.00,,2013-02-25 14:18:00,
2013-02-25 09:31:00,39.0,29.0,30.15,NNE,15,14.0,17.0,66,0.00,,,0.00,,2013-02-25 14:31:00,
2013-02-25 09:32:00,37.0,27.0,30.14,North,360,5.0,16.0,66,0.00,,,0.00,,2013-02-25 14:32:00,
2013-02-25 09:42:00,37.0,27.0,30.14,North,360,5.0,16.0,66,0.00,,,0.00,,2013-02-25 14:42:00,
2013-02-25 09:52:00,39.0,29.0,30.15,NNE,15,14.0,17.0,66,0.00,,,0.00,,2013-02-25 14:52:00,
2013-02-25 10:03:00,39.0,29.0,30.15,NNE,15,14.0,17.0,66,0.00,,,0.00,,2013-02-25 15:03:00,
2013-02-25 10:11:00,39.0,29.0,30.15,NNE,15,14.0,17.0,66,0.00,,,0.00,,2013-02-25 15:11:00,
2013-02-25 10:22:00,39.0,29.0,30.15,NNE,15,14.0,17.0,66,0.00,,,0.00,,2013-02-25 15:22:00,
2013-02-25 10:52:00,41.0,29.0,30.17,NNE,17,8.0,14.0,61,0.00,,,0.00,,2013-02-25 15:52:00,
2013-02-25 11:02:00,41.0,29.0,30.17,NNE,17,8.0,14.0,61,0.00,,,0.00,,2013-02-25 16:02:00,
2013-02-25 11:12:00,41.0,29.0,30.17,NNE,17,8.0,14.0,61,0.00,,,0.00,,2013-02-25 16:12:00,
2013-02-25 11:22:00,42.0,28.0,30.16,ENE,58,1.0,11.0,58,0.00,,,0.00,,2013-02-25 16:22:00,
2013-02-25 11:31:00,43.0,28.0,30.16,North,9,2.0,10.0,55,0.00,,,0.00,,2013-02-25 16:31:00,
2013-02-25 11:32:00,42.0,28.0,30.16,ENE,58,1.0,11.0,58,0.00,,,0.00,,2013-02-25 16:32:00,
2013-02-25 11:42:00,42.0,28.0,30.16,ENE,58,1.0,11.0,58,0.00,,,0.00,,2013-02-25 16:42:00,
2013-02-25 11:52:00,43.0,28.0,30.16,North,9,2.0,10.0,55,0.00,,,0.00,,2013-02-25 16:52:00,
2013-02-25 12:01:00,43.0,28.0,30.16,North,9,2.0,10.0,55,0.00,,,0.00,,2013-02-25 17:01:00,
2013-02-25 12:11:00,43.0,28.0,30.16,North,9,2.0,10.0,55,0.00,,,0.00,,2013-02-25 17:11:00,
2013-02-25 12:21:00,43.0,28.0,30.16,North,9,2.0,10.0,55,0.00,,,0.00,,2013-02-25 17:21:00,
2013-02-25 12:52:00,44.0,33.0,30.16,ENE,60,4.0,9.0,64,0.00,,,0.00,,2013-02-25 17:52:00,
2013-02-25 13:02:00,44.0,33.0,30.16,ENE,60,4.0,9.0,64,0.00,,,0.00,,2013-02-25 18:02:00,
2013-02-25 13:12:00,44.0,33.0,30.16,ENE,60,4.0,9.0,64,0.00,,,0.00,,2013-02-25 18:12:00,
2013-02-25 13:21:00,42.0,33.0,30.16,SSE,150,4.0,9.0,69,0.00,,,0.00,,2013-02-25 18:21:00,
2013-02-25 13:31:00,42.0,32.0,30.16,East,101,2.0,9.0,67,0.00,,,0.00,,2013-02-25 18:31:00,
2013-02-25 13:33:00,42.0,33.0,30.16,SSE,150,4.0,9.0,69,0.00,,,0.00,,2013-02-25 18:33:00,
2013-02-25 13:42:00,42.0,33.0,30.16,SSE,150,4.0,9.0,69,0.00,,,0.00,,2013-02-25 18:42:00,
2013-02-25 13:52:00,42.0,32.0,30.16,East,101,2.0,9.0,67,0.00,,,0.00,,2013-02-25 18:52:00,
2013-02-25 14:01:00,42.0,32.0,30.16,East,101,2.0,9.0,67,0.00,,,0.00,,2013-02-25 19:01:00,
2013-02-25 14:11:00,42.0,32.0,30.16,East,101,2.0,9.0,67,0.00,,,0.00,,2013-02-25 19:11:00,
2013-02-25 14:22:00,42.0,32.0,30.16,East,101,2.0,9.0,67,0.00,,,0.00,,2013-02-25 19:22:00,
2013-02-25 14:52:00,42.0,32.0,30.18,South,177,5.0,11.0,68,0.00,,,0.00,,2013-02-25 19:52:00,
2013-02-25 15:01:00,42.0,32.0,30.18,South,177,5.0,11.0,68,0.00,,,0.00,,2013-02-25 20:01:00,
2013-02-25 15:11:00,42.0,32.0,30.18,South,177,5.0,11.0,68,0.00,,,0.00,,2013-02-25 20:11:00,
2013-02-25 15:21:00,42.0,33.0,30.17,SSW,198,8.0,13.0,69,0.00,,,0.00,,2013-02-25 20:21:00,
2013-02-25 15:32:00,42.0,33.0,30.17,SSW,198,8.0,13.0,69,0.00,,,0.00,,2013-02-25 20:32:00,
2013-02-25 15:42:00,42.0,33.0,30.17,SSW,198,8.0,13.0,69,0.00,,,0.00,,2013-02-25 20:42:00,
2013-02-25 15:52:00,41.0,32.0,30.17,SSW,212,10.0,14.0,70,0.00,,,0.00,,2013-02-25 20:52:00,
2013-02-25 16:01:00,41.0,32.0,30.17,SSW,212,10.0,14.0,70,0.00,,,0.00,,2013-02-25 21:01:00,
2013-02-25 16:11:00,41.0,32.0,30.17,SSW,212,10.0,14.0,70,0.00,,,0.00,,2013-02-25 21:11:00,
2013-02-25 16:21:00,41.0,32.0,30.17,SSW,212,10.0,14.0,70,0.00,,,0.00,,2013-02-25 21:21:00,
2013-02-25 16:52:00,40.0,32.0,30.17,South,187,4.0,11.0,74,0.00,,,0.00,,2013-02-25 21:52:00,
2013-02-25 17:02:00,40.0,32.0,30.17,South,187,4.0,11.0,74,0.00,,,0.00,,2013-02-25 22:02:00,
2013-02-25 17:11:00,40.0,32.0,30.17,South,187,4.0,11.0,74,0.00,,,0.00,,2013-02-25 22:11:00,
2013-02-25 17:21:00,41.0,34.0,30.18,West,264,8.0,10.0,75,0.00,,,0.00,,2013-02-25 22:21:00,
2013-02-25 17:32:00,41.0,34.0,30.18,West,264,8.0,10.0,75,0.00,,,0.00,,2013-02-25 22:32:00,
2013-02-25 17:42:00,41.0,34.0,30.18,West,264,8.0,10.0,75,0.00,,,0.00,,2013-02-25 22:42:00,
2013-02-25 17:52:00,41.0,34.0,30.18,West,264,8.0,10.0,75,0.00,,,0.00,,2013-02-25 22:52:00,
2013-02-25 18:01:00,41.0,34.0,30.18,West,264,8.0,10.0,75,0.00,,,0.00,,2013-02-25 23:01:00,
2013-02-25 18:52:00,39.0,33.0,30.21,SSE,163,1.0,5.0,80,0.00,,,0.00,,2013-02-25 23:52:00,
2013-02-25 19:02:00,39.0,33.0,30.21,SSE,163,1.0,5.0,80,0.00,,,0.00,,2013-02-26 00:02:00,
2013-02-25 19:12:00,39.0,33.0,30.21,SSE,163,1.0,5.0,80,0.00,,,0.00,,2013-02-26 00:12:00,
2013-02-25 19:22:00,38.0,33.0,30.22,ESE,105,0.0,4.0,82,0.00,,,0.00,,2013-02-26 00:22:00,
2013-02-25 19:32:00,38.0,33.0,30.22,ESE,105,0.0,4.0,82,0.00,,,0.00,,2013-02-26 00:32:00,
2013-02-25 19:42:00,38.0,33.0,30.22,ESE,105,0.0,4.0,82,0.00,,,0.00,,2013-02-26 00:42:00,
2013-02-25 19:52:00,38.0,33.0,30.23,SE,131,1.0,3.0,83,0.00,,,0.00,,2013-02-26 00:52:00,
2013-02-25 20:02:00,38.0,33.0,30.23,SE,131,1.0,3.0,83,0.00,,,0.00,,2013-02-26 01:02:00,
2013-02-25 20:11:00,38.0,33.0,30.23,SE,131,1.0,3.0,83,0.00,,,0.00,,2013-02-26 01:11:00,
2013-02-25 20:21:00,38.0,34.0,30.23,SE,127,0.0,2.0,84,0.00,,,0.00,,2013-02-26 01:21:00,
2013-02-25 20:32:00,38.0,34.0,30.23,SE,127,0.0,2.0,84,0.00,,,0.00,,2013-02-26 01:32:00,
2013-02-25 20:42:00,38.0,34.0,30.23,SE,127,0.0,2.0,84,0.00,,,0.00,,2013-02-26 01:42:00,
2013-02-25 20:52:00,38.0,34.0,30.25,SE,143,1.0,3.0,87,0.00,,,0.00,,2013-02-26 01:52:00,
2013-02-25 21:01:00,38.0,34.0,30.25,SE,143,1.0,3.0,87,0.00,,,0.00,,2013-02-26 02:01:00,
2013-02-25 21:02:00,38.0,35.0,30.25,SE,146,2.0,5.0,88,0.00,,,0.00,,2013-02-26 02:02:00,
2013-02-25 21:11:00,38.0,34.0,30.25,SE,143,1.0,3.0,87,0.00,,,0.00,,2013-02-26 02:11:00,
2013-02-25 21:21:00,38.0,35.0,30.25,SE,146,2.0,5.0,88,0.00,,,0.00,,2013-02-26 02:21:00,
2013-02-25 21:32:00,38.0,35.0,30.25,SE,146,2.0,5.0,88,0.00,,,0.00,,2013-02-26 02:32:00,
2013-02-25 21:42:00,38.0,35.0,30.25,SE,146,2.0,5.0,88,0.00,,,0.00,,2013-02-26 02:42:00,
2013-02-25 21:52:00,38.0,35.0,30.25,SE,146,2.0,5.0,88,0.00,,,0.00,,2013-02-26 02:52:00,
2013-02-25 22:22:00,38.0,34.0,30.24,SE,136,2.0,8.0,86,0.00,,,0.00,,2013-02-26 03:22:00,
2013-02-25 22:32:00,38.0,34.0,30.24,SE,136,2.0,8.0,86,0.00,,,0.00,,2013-02-26 03:32:00,
2013-02-25 22:42:00,38.0,34.0,30.24,SE,136,2.0,8.0,86,0.00,,,0.00,,2013-02-26 03:42:00,
2013-02-25 22:52:00,38.0,34.0,30.24,SE,139,3.0,6.0,86,0.00,,,0.00,,2013-02-26 03:52:00,
2013-02-25 23:01:00,38.0,34.0,30.24,SE,139,3.0,6.0,86,0.00,,,0.00,,2013-02-26 04:01:00,
2013-02-25 23:11:00,38.0,34.0,30.24,SE,139,3.0,6.0,86,0.00,,,0.00,,2013-02-26 04:11:00,
2013-02-25 23:22:00,38.0,34.0,30.23,SSE,158,3.0,5.0,87,0.00,,,0.00,,2013-02-26 04:22:00,
2013-02-25 23:31:00,37.0,34.0,30.25,SSW,212,0.0,4.0,87,0.00,,,0.00,,2013-02-26 04:31:00,
2013-02-25 23:32:00,38.0,34.0,30.23,SSE,158,3.0,5.0,87,0.00,,,0.00,,2013-02-26 04:32:00,
2013-02-25 23:42:00,38.0,34.0,30.23,SSE,158,3.0,5.0,87,0.00,,,0.00,,2013-02-26 04:42:00,
2013-02-25 23:52:00,37.0,34.0,30.25,SSW,212,0.0,4.0,87,0.00,,,0.00,,2013-02-26 04:52:00,